Tiempo atmosférico en la estación meteorológica de Ribadeo, Lugo (43 m.)



Fecha
DESCASC
Temp. máxima en grados centígrados (hora)
DESCASC
Temp. mínima en grados centígrados (hora)
DESCASC
Temp. media en grados centígrados
DESCASC
Racha de viento máxima en m/sg (hora)
DESCASC
Velocidad máxima media en intervalos de 10 minutos(hora)
DESCASC
Precipitaciones diarias en mm
DESCASC
Precipitaciones de 00:00 a 06:00 en mm
DESCASC
Precipitaciones de 06:00 a 12:00 en mm
DESCASC
Precipitaciones de 12:00 a 18:00 en mm
DESCASC
Precipitaciones de 18:00 a 24:00 en mm
DESCASC
12-01-2021 11 (12:40) 2.2 (00:00) 6.6 5.83 (06:10) 4.72 (09:20) 0 0 0 0 0
26-01-2021 19.4 (14:30) 9.2 (00:00) 14.3 10.56 (14:50) 6.67 (23:20) 0.2 0 0.2 0 0
25-01-2021 11.5 (15:00) 9.8 (00:00) 10.7 12.5 (00:10) 7.78 (00:10) 28.8 17 11.8 0 0
22-01-2021 12.8 (15:00) 7.1 (00:00) 10 15.28 (01:40) 10 (01:40) 27 14.2 12.6 0.2 0
20-01-2021 15.1 (10:20) 11.9 (00:00) 13.5 22.5 (11:10) 10.56 (11:10) 4 0 0 4 0
19-01-2021 15.2 (13:40) 6.5 (00:00) 10.8 19.44 (22:00) 10 (22:10) 0 0 0 0 0
18-01-2021 12.8 (13:50) 6.7 (00:00) 9.8 4.44 (14:50) 2.78 (10:50) 1 1 0 0 0
16-01-2021 12.8 (14:10) 2.5 (00:00) 7.7 10.28 (06:00) 7.5 (06:00) 0 0 0 0 0
15-01-2021 12.2 (14:00) 5 (00:00) 8.6 6.67 (23:50) 5.28 (23:50) 0.2 0 0.2 0 0
14-01-2021 11.4 (14:10) 4 (00:00) 7.7 11.94 (05:10) 8.33 (06:00) 0.2 0 0 0.2 0
13-01-2021 12 (12:40) 3.4 (00:00) 7.7 5.56 (08:40) 4.44 (08:40) 0 0 0 0 0
11-01-2021 10.8 (13:40) 3.2 (00:00) 7 10.83 (00:50) 6.94 (00:30) 0 0 0 0 0
10-01-2021 9.6 (15:00) 6 (01:10) 7.8 15.83 (06:30) 8.89 (00:10) 0.4 0.4 0 0 0
08-01-2021 8.3 (14:10) -0.6 (-00:0) 3.9 7.5 (15:10) 4.72 (14:50) 0 0 0 0 0
07-01-2021 9.4 (14:20) 1.1 (00:00) 5.2 5 (07:50) 3.89 (03:30) 0.2 0 0.2 0 0
06-01-2021 9.5 (15:00) 1.7 (00:00) 5.6 5.83 (10:10) 4.17 (10:00) 4.2 1.2 3 0 0
05-01-2021 6.7 (16:50) 3.8 (00:00) 5.2 9.72 (08:50) 6.67 (11:10) 8 1.8 4.4 1.6 0.2
17-01-2021 13.5 (15:20) 5 (00:00) 9.3 11.11 (12:10) 7.5 (12:10) 0.2 0 0 0 0.2
30-12-2020 10.6 (16:30) 5.5 (00:00) 8.1 11.67 (18:30) 7.5 (11:40) 2.8 1.2 0.4 0.8 0.4
24-01-2021 13.9 (15:50) 9.1 (00:00) 11.5 12.78 (23:40) 7.78 (23:40) 1.4 1 0 0 0.4
09-01-2021 8.2 (22:20) 0.2 (00:00) 4.2 18.06 (21:40) 11.11 (22:40) 3.2 0 1.6 0.6 1
01-01-2021 9.5 (14:00) 4.6 (00:00) 7 13.89 (09:20) 7.5 (09:20) 11.4 6 4 0.2 1.2
28-12-2020 12.1 (14:10) 6.6 (00:00) 9.4 19.72 (06:30) 11.11 (10:40) 8.6 1.8 2.2 2.4 2.2
03-01-2021 8.2 (15:50) 4.9 (00:00) 6.5 13.33 (17:50) 7.5 (11:00) 20.8 7.6 3.6 7 2.6
31-12-2020 10.6 (09:20) 6.2 (00:00) 8.4 13.33 (11:40) 7.78 (11:40) 24.8 0 9.6 11.2 4
02-01-2021 9.4 (17:00) 3.9 (00:00) 6.6 8.61 (00:50) 6.11 (05:30) 11.4 1 1.8 4.2 4.4
04-01-2021 7.1 (16:00) 3.1 (00:00) 5.1 11.11 (03:10) 6.94 (03:10) 17.8 2.6 8.2 2.4 4.6
21-01-2021 16.9 (14:40) 9.7 (00:00) 13.3 21.67 (15:10) 12.5 (15:10) 8 0 1.2 0 6.8
23-01-2021 16.1 (16:00) 9.9 (00:00) 13 17.5 (07:50) 9.72 (16:40) 15.2 0 7.4 1 6.8
29-12-2020 9.1 (00:10) 5.5 (00:00) 7.3 14.17 (07:20) 8.61 (00:30) 21.2 4.6 3.2 5.6 7.8

Gráficas

Temp. máximas Temp. mínimas Temp. medias Precipitaciones Rachas de viento máximas Velocidades máximas media en intervalos de 10 minutos

Datos horarios

Fecha y hora oficial Temperatura (ºC) Velocidad del viento (km/h) Dirección del viento Racha (km/h) Dirección de racha Precipitación (mm) Presión (hPa) Tendencia (hPa) Humedad (%)
2021-01-26 23:00:00 16.6 17 Sur 27 Sur 0 -- -- 85
2021-01-26 22:00:00 15 0 Calma 12 Sudoeste 0 -- -- 90
2021-01-26 21:00:00 17.2 10 Sudoeste 29 Sur 0 -- -- 83
2021-01-26 20:00:00 16.9 18 Sur 26 Sur 0 -- -- 86
2021-01-26 19:00:00 16.5 11 Sur 20 Sudoeste 0 -- -- 89
2021-01-26 18:00:00 17.5 10 Sudoeste 22 Sur 0 -- -- 83
2021-01-26 17:00:00 17.5 13 Sur 28 Sur 0 -- -- 85
2021-01-26 16:00:00 17.8 16 Sur 32 Sur 0 -- -- 83
2021-01-26 15:00:00 19.1 17 Sudoeste 38 Sudoeste 0 -- -- 78
2021-01-26 14:00:00 18.6 16 Sur 27 Sudoeste 0 -- -- 79
2021-01-26 13:00:00 18.2 16 Sudoeste 28 Sudoeste 0 -- -- 78
2021-01-26 12:00:00 17.2 14 Sudoeste 27 Sudoeste 0.2 -- -- 80
2021-01-26 11:00:00 16.7 13 Oeste 27 Sudoeste 0 -- -- 83
2021-01-26 10:00:00 15 4 Oeste 14 Sur 0 -- -- 91
2021-01-26 09:00:00 13.1 6 Sur 12 Sudoeste 0 -- -- 99
2021-01-26 08:00:00 10.9 0 Calma 7 Sudeste 0 -- -- 98
2021-01-26 07:00:00 10.6 2 Este 5 Sur 0 -- -- 98
2021-01-26 06:00:00 10.3 3 Oeste 7 Sudoeste 0 -- -- 98
2021-01-26 05:00:00 9.7 3 Este 5 Sudoeste 0 -- -- 98
2021-01-26 04:00:00 10 0 Calma 5 Sur 0 -- -- 97
2021-01-26 03:00:00 10.2 0 Calma 6 Sudeste 0 -- -- 97
2021-01-26 02:00:00 9.9 4 Sudeste 12 Sudeste 0 -- -- 97
2021-01-26 01:00:00 9.4 9 Sur 11 Sur 0 -- -- 97
2021-01-26 00:00:00 10 3 Sur 6 Sudeste 0 -- -- 96
2021-01-25 23:00:00 10.3 3 Sur 7 Sur 0 -- -- 97
2021-01-25 22:00:00 10.2 5 Sudeste 6 Sudeste 0 -- -- 97
2021-01-25 21:00:00 10.2 4 Sudeste 8 Este 0 -- -- 96
2021-01-25 20:00:00 10.3 5 Este 7 Este 0 -- -- 96
2021-01-25 19:00:00 10.4 5 Este 14 Este 0 -- -- 96
2021-01-25 18:00:00 10.6 6 Este 17 Este 0 -- -- 95
2021-01-25 17:00:00 10.7 12 Este 22 Este 0 -- -- 94
2021-01-25 16:00:00 11 13 Nordeste 21 Nordeste 0 -- -- 93
2021-01-25 15:00:00 11.5 10 Nordeste 18 Nordeste 0 -- -- 93
2021-01-25 14:00:00 11.2 9 Nordeste 20 Este 0 -- -- 94
2021-01-25 13:00:00 10.7 8 Este 14 Este 0 -- -- 97
2021-01-25 12:00:00 10.3 8 Este 21 Este 0 -- -- 98
2021-01-25 11:00:00 10.1 14 Este 24 Nordeste 1.2 -- -- 98
2021-01-25 10:00:00 9.8 9 Este 24 Este 2.2 -- -- 98
2021-01-25 09:00:00 10.1 13 Este 30 Nordeste 2.4 -- -- 98
2021-01-25 08:00:00 10 0 Calma 6 Nordeste 3.6 -- -- 98
2021-01-25 07:00:00 10 0 Calma 15 Este 2.4 -- -- 97
2021-01-25 06:00:00 10 10 Este 18 Este 3.4 -- -- 97
2021-01-25 05:00:00 10.1 7 Este 12 Nordeste 4.4 -- -- 97
2021-01-25 04:00:00 9.9 3 Este 10 Nordeste 2.6 -- -- 96
2021-01-25 03:00:00 10.1 0 Calma 9 Este 3.4 -- -- 94
2021-01-25 02:00:00 10.8 3 Sudoeste 36 Sur 1.6 -- -- 89
2021-01-25 01:00:00 10.9 28 Sur 45 Sur 1.6 -- -- 87
2021-01-25 00:00:00 11.4 26 Sur 46 Sudoeste 0.4 -- -- 82
2021-01-24 23:00:00 11.8 23 Sur 40 Sur 0 -- -- 79
2021-01-24 22:00:00 11.7 6 Noroeste 20 Sur 0 -- -- 81
2021-01-24 21:00:00 11.5 13 Sur 45 Sudoeste 0 -- -- 84
2021-01-24 20:00:00 12.6 17 Sudoeste 34 Sudoeste 0 -- -- 76
2021-01-24 19:00:00 12.8 17 Sudoeste 35 Oeste 0 -- -- 74
2021-01-24 18:00:00 12.9 14 Sudoeste 39 Oeste 0 -- -- 72
2021-01-24 17:00:00 13.3 17 Oeste 31 Sudoeste 0 -- -- 69
2021-01-24 16:00:00 13.9 15 Sudoeste 41 Sudoeste 0 -- -- 66
2021-01-24 15:00:00 13.5 24 Oeste 39 Sudoeste 0 -- -- 72
2021-01-24 14:00:00 12.5 21 Sudoeste 44 Sudoeste 0 -- -- 77
2021-01-24 13:00:00 12.3 15 Sudoeste 40 Sudoeste 0 -- -- 77
2021-01-24 12:00:00 12.6 20 Sudoeste 42 Sudoeste 0 -- -- 73
2021-01-24 11:00:00 11.7 15 Sur 36 Sur 0 -- -- 78
2021-01-24 10:00:00 9.8 17 Sur 27 Sur 0 -- -- 82
2021-01-24 09:00:00 9.2 18 Sur 27 Sur 0 -- -- 85
2021-01-24 08:00:00 9.1 19 Sur 26 Sur 0 -- -- 87
2021-01-24 07:00:00 9.8 10 Sudoeste 24 Sudoeste 0 -- -- 82
2021-01-24 06:00:00 9.4 10 Sur 24 Oeste 0 -- -- 81
2021-01-24 05:00:00 9.5 14 Sudoeste 27 Sudoeste 0 -- -- 80
2021-01-24 04:00:00 9.8 17 Sudoeste 27 Oeste 0 -- -- 83
2021-01-24 03:00:00 9.6 14 Oeste 31 Oeste 0.2 -- -- 91
2021-01-24 02:00:00 9.6 16 Oeste 36 Noroeste 0.6 -- -- 95
2021-01-24 01:00:00 10.1 15 Noroeste 39 Oeste 0.2 -- -- 95
2021-01-24 00:00:00 9.9 14 Noroeste 26 Noroeste 5.6 -- -- 96
2021-01-23 23:00:00 11.2 14 Oeste 35 Sudoeste 1 -- -- 89
2021-01-23 22:00:00 12.6 19 Sudoeste 36 Oeste 0 -- -- 77
2021-01-23 21:00:00 12.8 24 Sudoeste 47 Oeste 0.2 -- -- 77
2021-01-23 20:00:00 13.7 30 Sudoeste 59 Sudoeste 0 -- -- 67
2021-01-23 19:00:00 13.8 26 Sudoeste 50 Sudoeste 0 -- -- 66
2021-01-23 18:00:00 14.4 24 Sudoeste 51 Oeste 0 -- -- 67
2021-01-23 17:00:00 15.1 26 Oeste 56 Oeste 0 -- -- 68
2021-01-23 16:00:00 16.1 20 Sudoeste 42 Sudoeste 0 -- -- 77
2021-01-23 15:00:00 14.2 24 Sudoeste 49 Sudoeste 0.4 -- -- 85
2021-01-23 14:00:00 14 30 Sudoeste 56 Sur 0 -- -- 78
2021-01-23 13:00:00 12.8 24 Sudoeste 51 Sudoeste 0.6 -- -- 83
2021-01-23 12:00:00 10.3 4 Sur 32 Oeste 6.4 -- -- 91
2021-01-23 11:00:00 10.9 17 Oeste 39 Sudoeste 0.4 -- -- 83
2021-01-23 10:00:00 10.1 20 Sur 38 Sudoeste 0 -- -- 81
2021-01-23 09:00:00 10.5 16 Sur 45 Sudoeste 0 -- -- 77
2021-01-23 08:00:00 11.1 30 Sudoeste 63 Sudoeste 0 -- -- 69
2021-01-23 07:00:00 10.9 24 Sudoeste 60 Sudoeste 0.6 -- -- 77
2021-01-23 06:00:00 10.6 21 Sudoeste 58 Sudoeste 0 -- -- 77
2021-01-23 05:00:00 11.1 31 Sudoeste 53 Sudoeste 0 -- -- 71
2021-01-23 04:00:00 11.2 27 Sudoeste 54 Sudoeste 0 -- -- 69
2021-01-23 03:00:00 10.8 26 Sudoeste 50 Sudoeste 0 -- -- 71
2021-01-23 02:00:00 10.6 21 Sudoeste 51 Oeste 0 -- -- 70
2021-01-23 01:00:00 10.8 28 Sudoeste 51 Sudoeste 0 -- -- 70
2021-01-23 00:00:00 10.6 22 Sudoeste 42 Sudoeste 0 -- -- 72
2021-01-22 23:00:00 10.5 22 Sudoeste 44 Sudoeste 0 -- -- 73
2021-01-22 22:00:00 10.7 23 Sudoeste 42 Sudoeste 0 -- -- 72
2021-01-22 21:00:00 10.5 25 Sudoeste 46 Sudoeste 0 -- -- 72
2021-01-22 20:00:00 10.4 19 Sudoeste 39 Oeste 0 -- -- 71
2021-01-22 19:00:00 10.5 16 Sudoeste 35 Oeste 0 -- -- 70
2021-01-22 18:00:00 11.1 17 Sudoeste 33 Sudoeste 0 -- -- 66
2021-01-22 17:00:00 12.4 20 Sudoeste 33 Oeste 0 -- -- 59
2021-01-22 16:00:00 12.6 14 Oeste 34 Sudoeste 0 -- -- 64
2021-01-22 15:00:00 12.8 20 Sudoeste 38 Oeste 0 -- -- 63
2021-01-22 14:00:00 12 15 Oeste 40 Oeste 0 -- -- 68
2021-01-22 13:00:00 11.9 17 Sudoeste 40 Sudoeste 0.2 -- -- 68
2021-01-22 12:00:00 10.6 21 Sudoeste 33 Sudoeste 0 -- -- 69
2021-01-22 11:00:00 8.3 17 Sudoeste 28 Oeste 0 -- -- 80
2021-01-22 10:00:00 7.2 18 Oeste 26 Oeste 3 -- -- 89
2021-01-22 09:00:00 7.6 18 Sudoeste 46 Oeste 2.2 -- -- 87
2021-01-22 08:00:00 8.4 22 Oeste 33 Oeste 2 -- -- 87
2021-01-22 07:00:00 8.6 17 Oeste 32 Oeste 5.4 -- -- 92
2021-01-22 06:00:00 8.5 18 Sudoeste 43 Sudoeste 2.6 -- -- 86
2021-01-22 05:00:00 9.2 24 Sudoeste 42 Sudoeste 1 -- -- 84
2021-01-22 04:00:00 9.7 19 Sudoeste 46 Sudoeste 1.6 -- -- 81
2021-01-22 03:00:00 10 18 Sudoeste 39 Sur 1.8 -- -- 86
2021-01-22 02:00:00 9.2 26 Sur 55 Sur 0.4 -- -- 83
2021-01-22 01:00:00 9.1 32 Sur 46 Sur 6.8 -- -- 88
2021-01-22 00:00:00 9.7 26 Sur 51 Sur 4.8 -- -- 87
2021-01-21 23:00:00 10.3 23 Sur 73 Sudoeste 1.8 -- -- 83
2021-01-21 22:00:00 11.5 31 Sur 64 Sudoeste 0.2 -- -- 78
2021-01-21 21:00:00 13.4 35 Sudoeste 77 Sur 0 -- -- 64
2021-01-21 20:00:00 14.3 36 Sudoeste 77 Oeste 0 -- -- 59
2021-01-21 19:00:00 14.4 35 Sudoeste 63 Sudoeste 0 -- -- 59
2021-01-21 18:00:00 14.6 32 Sudoeste 62 Sudoeste 0 -- -- 60
2021-01-21 17:00:00 15.6 31 Sudoeste 73 Sudoeste 0 -- -- 57
2021-01-21 16:00:00 16.4 32 Sudoeste 78 Sudoeste 0 -- -- 57
2021-01-21 15:00:00 16.8 36 Sudoeste 68 Sudoeste 0 -- -- 53
2021-01-21 14:00:00 16.6 36 Sudoeste 71 Oeste 0 -- -- 56
2021-01-21 13:00:00 16.7 34 Sudoeste 62 Oeste 0 -- -- 63
2021-01-21 12:00:00 14 32 Sudoeste 60 Sudoeste 0 -- -- 78
2021-01-21 11:00:00 14.1 35 Sudoeste 71 Sur 0 -- -- 72
2021-01-21 10:00:00 12.4 33 Sur 68 Sudoeste 1 -- -- 81
2021-01-21 09:00:00 13.1 26 Sudoeste 57 Sur 0.2 -- -- 76
2021-01-21 08:00:00 13.7 27 Sur 66 Sudoeste 0 -- -- 70
2021-01-21 07:00:00 13.3 23 Sur 59 Sur 0 -- -- 72
2021-01-21 06:00:00 12.8 25 Sudoeste 50 Sudoeste 0 -- -- 74
2021-01-21 05:00:00 12.6 15 Sudoeste 32 Sudoeste 0 -- -- 76
2021-01-21 04:00:00 12.3 12 Sudoeste 35 Sudoeste 0 -- -- 79
2021-01-21 03:00:00 12.7 15 Sudoeste 32 Sudoeste 0 -- -- 76
2021-01-21 02:00:00 12.9 19 Sudoeste 38 Sudoeste 0 -- -- 76
2021-01-21 01:00:00 13.4 22 Sudoeste 44 Sudoeste 0 -- -- 75
2021-01-21 00:00:00 13.7 26 Sudoeste 48 Oeste 0 -- -- 74
2021-01-20 23:00:00 13.7 18 Sudoeste 44 Sudoeste 0 -- -- 75
2021-01-20 22:00:00 12.9 17 Sudoeste 38 Sudoeste 0 -- -- 80
2021-01-20 21:00:00 12.9 17 Sudoeste 48 Sudoeste 0 -- -- 79
2021-01-20 20:00:00 13.6 20 Sudoeste 36 Sudoeste 0 -- -- 73
2021-01-20 19:00:00 13.7 15 Sudoeste 35 Sur 0 -- -- 74
2021-01-20 18:00:00 13.9 11 Sudoeste 46 Sudoeste 0 -- -- 73
2021-01-20 17:00:00 14 22 Sudoeste 46 Sudoeste 0 -- -- 74
2021-01-20 16:00:00 13.7 20 Sudoeste 35 Sudoeste 0 -- -- 79
2021-01-20 15:00:00 13.4 17 Sudoeste 41 Sudoeste 0.4 -- -- 81
2021-01-20 14:00:00 12.8 22 Sudoeste 47 Sudoeste 0.8 -- -- 83
2021-01-20 13:00:00 12 21 Sudoeste 54 Sudoeste 2.8 -- -- 83
2021-01-20 12:00:00 13.7 33 Sudoeste 81 Sur 0 -- -- 67
2021-01-20 11:00:00 14.6 34 Sudoeste 70 Sur 0 -- -- 60
2021-01-20 10:00:00 14.7 28 Sudoeste 59 Sur 0 -- -- 57
2021-01-20 09:00:00 13.8 26 Sur 58 Sudoeste 0 -- -- 56
2021-01-20 08:00:00 14 31 Sudoeste 63 Sudoeste 0 -- -- 56
2021-01-20 07:00:00 13.9 23 Sur 60 Sudoeste 0 -- -- 57
2021-01-20 06:00:00 13.9 22 Sur 64 Sur 0 -- -- 55
2021-01-20 05:00:00 13.9 21 Sur 55 Sur 0 -- -- 55
2021-01-20 04:00:00 13.6 19 Sur 46 Sur 0 -- -- 56
2021-01-20 03:00:00 13.1 14 Sur 51 Sudeste 0 -- -- 53
2021-01-20 02:00:00 12.9 22 Sur 53 Sur 0 -- -- 50
2021-01-20 01:00:00 13.4 28 Sur 56 Sur 0 -- -- 48
2021-01-20 00:00:00 13.9 31 Sur 62 Sur 0 -- -- 44
2021-01-19 23:00:00 14 32 Sur 62 Sur 0 -- -- 42
2021-01-19 22:00:00 14 34 Sur 70 Sur 0 -- -- 43
2021-01-19 21:00:00 14.5 22 Sur 44 Sur 0 -- -- 40
2021-01-19 20:00:00 14.6 21 Sur 48 Sur 0 -- -- 40
2021-01-19 19:00:00 14.5 30 Sur 54 Sudoeste 0 -- -- 42
2021-01-19 18:00:00 14.6 27 Sudoeste 58 Sudoeste 0 -- -- 43
2021-01-19 17:00:00 14.9 30 Sudoeste 52 Sudoeste 0 -- -- 40
2021-01-19 16:00:00 14.7 15 Sudoeste 49 Sur 0 -- -- 44
2021-01-19 15:00:00 15 31 Sur 57 Sur 0 -- -- 38
2021-01-19 14:00:00 15.2 23 Sur 53 Sur 0 -- -- 35
2021-01-19 13:00:00 14 14 Sur 32 Sur 0 -- -- 37
2021-01-19 12:00:00 13.1 10 Sur 40 Sur 0 -- -- 42
2021-01-19 11:00:00 13 25 Sur 44 Sur 0 -- -- 39
2021-01-19 10:00:00 12.4 23 Sur 35 Sur 0 -- -- 43
2021-01-19 09:00:00 11.4 21 Sur 34 Sur 0 -- -- 46
2021-01-19 08:00:00 10.9 9 Sur 25 Sur 0 -- -- 49
2021-01-19 07:00:00 10.9 13 Sur 26 Sudoeste 0 -- -- 54
2021-01-19 06:00:00 10.5 6 Sur 20 Sur 0 -- -- 60
2021-01-19 05:00:00 10.9 13 Sudoeste 21 Sudoeste 0 -- -- 61
2021-01-19 04:00:00 8.7 8 Sur 22 Sudoeste 0 -- -- 73
2021-01-19 03:00:00 11 10 Sudoeste 24 Sur 0 -- -- 67
2021-01-19 02:00:00 11.7 14 Sudoeste 25 Sudoeste 0 -- -- 69
2021-01-19 01:00:00 6.8 3 Sudeste 9 Sur 0 -- -- 97
2021-01-19 00:00:00 7.1 3 Oeste 5 Oeste 0 -- -- 98
2021-01-18 23:00:00 7.2 3 Sudoeste 8 Sudeste 0 -- -- 98
2021-01-18 22:00:00 6.8 2 Oeste 8 Sur 0 -- -- 96
2021-01-18 21:00:00 6.9 3 Sur 10 Sudeste 0 -- -- 96
2021-01-18 20:00:00 7 6 Sur 9 Sudeste 0 -- -- 94
2021-01-18 19:00:00 7.8 6 Sur 9 Sudeste 0 -- -- 92
2021-01-18 18:00:00 10.5 4 Sudeste 10 Nordeste 0 -- -- 85
2021-01-18 17:00:00 12 8 Este 13 Nordeste 0 -- -- 82
2021-01-18 16:00:00 12.1 8 Nordeste 15 Nordeste 0 -- -- 81
2021-01-18 15:00:00 12.4 9 Nordeste 16 Este 0 -- -- 80
2021-01-18 14:00:00 12.7 9 Este 13 Este 0 -- -- 79
2021-01-18 13:00:00 12.7 8 Este 12 Este 0 -- -- 81
2021-01-18 12:00:00 11.3 7 Sur 15 Sudoeste 0 -- -- 88
2021-01-18 11:00:00 10.5 9 Sur 13 Sudeste 0 -- -- 96
2021-01-18 10:00:00 10 7 Sudeste 9 Sur 0 -- -- 98
2021-01-18 09:00:00 9.9 6 Sudeste 9 Sudeste 0 -- -- 98
2021-01-18 08:00:00 9.9 6 Sudeste 8 Sudeste 0 -- -- 98
2021-01-18 07:00:00 9.9 0 Calma 5 Sur 0 -- -- 98
2021-01-18 06:00:00 10 3 Sudoeste 5 Sur 0 -- -- 98
2021-01-18 05:00:00 10.2 2 Sudoeste 5 Sudoeste 0 -- -- 98
2021-01-18 04:00:00 10.4 0 Calma 5 Sudoeste 0 -- -- 98
2021-01-18 03:00:00 10.5 4 Sudoeste 6 Oeste 0 -- -- 98
2021-01-18 02:00:00 10.5 5 Oeste 9 Oeste 0.4 -- -- 98
2021-01-18 01:00:00 10.7 4 Noroeste 8 Noroeste 0.6 -- -- 97
2021-01-18 00:00:00 11 3 Oeste 6 Oeste 0 -- -- 97
2021-01-17 23:00:00 11.1 6 Oeste 12 Oeste 0.2 -- -- 96
2021-01-17 22:00:00 11.4 8 Oeste 12 Oeste 0 -- -- 95
2021-01-17 21:00:00 11.4 3 Oeste 7 Norte 0 -- -- 94
2021-01-17 20:00:00 11.6 4 Sur 7 Sur 0 -- -- 93
2021-01-17 19:00:00 12.3 3 Sudeste 11 Oeste 0 -- -- 87
2021-01-17 18:00:00 12.9 3 Sudoeste 21 Sur 0 -- -- 83
2021-01-17 17:00:00 13.1 10 Sur 20 Sur 0 -- -- 83
2021-01-17 16:00:00 13.1 13 Sur 22 Sur 0 -- -- 81
2021-01-17 15:00:00 13.3 11 Sur 23 Sur 0 -- -- 80
2021-01-17 14:00:00 13 18 Sur 33 Sur 0 -- -- 78
2021-01-17 13:00:00 12.5 22 Sur 40 Sur 0 -- -- 78
2021-01-17 12:00:00 11.7 24 Sur 39 Sur 0 -- -- 79
2021-01-17 11:00:00 10.9 24 Sur 38 Sur 0 -- -- 79
2021-01-17 10:00:00 10.2 23 Sur 37 Sur 0 -- -- 79
2021-01-17 09:00:00 8.2 21 Sur 33 Sur 0 -- -- 82
2021-01-17 08:00:00 7.7 22 Sur 32 Sur 0 -- -- 81
2021-01-17 07:00:00 5 6 Sur 14 Sur 0 -- -- 84
2021-01-17 06:00:00 6.1 6 Sur 17 Sur 0 -- -- 77
2021-01-17 05:00:00 6.8 11 Sudeste 21 Sur 0 -- -- 77
2021-01-17 04:00:00 5.9 12 Sudeste 14 Sudeste 0 -- -- 89
2021-01-17 03:00:00 6 4 Sur 10 Oeste 0 -- -- 85
2021-01-17 02:00:00 7.8 4 Nordeste 13 Oeste 0 -- -- 79
2021-01-17 01:00:00 9.8 11 Oeste 24 Oeste 0 -- -- 78
2021-01-17 00:00:00 8.1 5 Sur 22 Sudoeste 0 -- -- 81
2021-01-16 23:00:00 6.8 7 Sur 13 Sur 0 -- -- 81
2021-01-16 22:00:00 5.5 9 Sur 11 Sur 0 -- -- 77
2021-01-16 21:00:00 7.4 5 Sur 12 Sudoeste 0 -- -- 66
2021-01-16 20:00:00 7.6 3 Sudoeste 14 Sudeste 0 -- -- 72
2021-01-16 19:00:00 6.4 9 Sur 10 Sur 0 -- -- 86
2021-01-16 18:00:00 8.8 4 Sur 7 Sur 0 -- -- 78
2021-01-16 17:00:00 11.9 3 Nordeste 10 Noroeste 0 -- -- 63
2021-01-16 16:00:00 12.2 6 Noroeste 9 Noroeste 0 -- -- 64
2021-01-16 15:00:00 12 5 Noroeste 9 Noroeste 0 -- -- 58
2021-01-16 14:00:00 12.4 4 Noroeste 9 Oeste 0 -- -- 57
2021-01-16 13:00:00 10.7 5 Noroeste 26 Sur 0 -- -- 64
2021-01-16 12:00:00 9.9 16 Sur 21 Sur 0 -- -- 65
2021-01-16 11:00:00 7.1 15 Sur 28 Sur 0 -- -- 73
2021-01-16 10:00:00 5.7 20 Sur 28 Sur 0 -- -- 76
2021-01-16 09:00:00 3.2 17 Sur 21 Sudeste 0 -- -- 85
2021-01-16 08:00:00 2.5 8 Sur 13 Sur 0 -- -- 86
2021-01-16 07:00:00 4 6 Sur 30 Sur 0 -- -- 77
2021-01-16 06:00:00 5 27 Sur 37 Sur 0 -- -- 80
2021-01-16 05:00:00 4.1 12 Sur 18 Sur 0 -- -- 87
2021-01-16 04:00:00 4.4 12 Sur 19 Sur 0 -- -- 88
2021-01-16 03:00:00 4.7 15 Sur 33 Sur 0 -- -- 90
2021-01-16 02:00:00 5.1 20 Sur 26 Sur 0 -- -- 91
2021-01-16 01:00:00 5.5 10 Sur 18 Sudeste 0 -- -- 93
2021-01-16 00:00:00 6.1 16 Sur 24 Sur 0 -- -- 93
2021-01-15 23:00:00 6.2 12 Sur 15 Sur 0 -- -- 94
2021-01-15 22:00:00 6.6 11 Sur 15 Sudeste 0 -- -- 95
2021-01-15 21:00:00 5.7 9 Sur 12 Sudeste 0 -- -- 95
2021-01-15 20:00:00 5.8 5 Sur 9 Sudeste 0 -- -- 92
2021-01-15 19:00:00 7 6 Sudeste 10 Sudeste 0 -- -- 91
2021-01-15 18:00:00 9.3 4 Sur 7 Este 0 -- -- 82
2021-01-15 17:00:00 11.1 6 Nordeste 11 Nordeste 0 -- -- 78
2021-01-15 16:00:00 11.7 5 Nordeste 9 Nordeste 0 -- -- 74
2021-01-15 15:00:00 11.7 5 Norte 10 Noroeste 0 -- -- 74
2021-01-15 14:00:00 12.2 0 Calma 7 Sur 0 -- -- 75
2021-01-15 13:00:00 11.1 4 Nordeste 7 Nordeste 0 -- -- 83
2021-01-15 12:00:00 10.5 3 Este 8 Sudeste 0 -- -- 87
2021-01-15 11:00:00 8.2 0 Calma 15 Sur 0 -- -- 95
2021-01-15 10:00:00 6.3 13 Sur 17 Sur 0 -- -- 98
2021-01-15 09:00:00 5.1 5 Sur 17 Sur 0 -- -- 95
2021-01-15 08:00:00 6.3 14 Sudeste 17 Sur 0 -- -- 97
2021-01-15 07:00:00 6.3 11 Sudeste 16 Sudeste 0.2 -- -- 97
2021-01-15 06:00:00 5.4 7 Sur 9 Sur 0 -- -- 97
2021-01-15 05:00:00 6.5 10 Sur 13 Sur 0 -- -- 97
2021-01-15 04:00:00 6.8 11 Sur 13 Sudeste 0 -- -- 97
2021-01-15 03:00:00 7.4 10 Sur 12 Sur 0 -- -- 96
2021-01-15 02:00:00 8.5 8 Sur 9 Sur 0 -- -- 97
2021-01-15 01:00:00 8.9 4 Sur 8 Sur 0 -- -- 96
2021-01-15 00:00:00 9.5 3 Sur 7 Sur 0 -- -- 96
2021-01-14 23:00:00 9.5 5 Sur 12 Sur 0 -- -- 95
2021-01-14 22:00:00 9.6 9 Sur 12 Sudeste 0 -- -- 95
2021-01-14 21:00:00 9.9 7 Sur 11 Sur 0 -- -- 94
2021-01-14 20:00:00 10 2 Sur 13 Sur 0 -- -- 91
2021-01-14 19:00:00 10.2 5 Sur 14 Sur 0 -- -- 90
2021-01-14 18:00:00 10 11 Sur 17 Sur 0 -- -- 90
2021-01-14 17:00:00 10.6 13 Sur 21 Sur 0.2 -- -- 87
2021-01-14 16:00:00 11.4 15 Sur 26 Sur 0 -- -- 81
2021-01-14 15:00:00 10.9 19 Sur 27 Sur 0 -- -- 79
2021-01-14 14:00:00 11.2 11 Sur 26 Sur 0 -- -- 79
2021-01-14 13:00:00 10.6 18 Sur 32 Sur 0 -- -- 78
2021-01-14 12:00:00 10.1 16 Sur 26 Sudoeste 0 -- -- 78
2021-01-14 11:00:00 9.1 20 Sur 33 Sudoeste 0 -- -- 81
2021-01-14 10:00:00 8.2 21 Sur 35 Sur 0 -- -- 80
2021-01-14 09:00:00 7 26 Sur 36 Sur 0 -- -- 82
2021-01-14 08:00:00 7.1 23 Sur 38 Sur 0 -- -- 79
2021-01-14 07:00:00 7 27 Sur 40 Sur 0 -- -- 78
2021-01-14 06:00:00 6.5 30 Sur 43 Sur 0 -- -- 78
2021-01-14 05:00:00 6.3 28 Sur 39 Sur 0 -- -- 78
2021-01-14 04:00:00 6.3 17 Sur 28 Sudoeste 0 -- -- 79
2021-01-14 03:00:00 6.2 14 Sur 24 Sur 0 -- -- 83
2021-01-14 02:00:00 4.3 8 Sur 17 Sur 0 -- -- 89
2021-01-14 01:00:00 4.5 11 Sur 14 Sur 0 -- -- 93
2021-01-14 00:00:00 4 12 Sur 16 Sur 0 -- -- 93
2021-01-13 23:00:00 4.3 10 Sur 14 Sudeste 0 -- -- 92
2021-01-13 22:00:00 4.7 13 Sur 15 Sur 0 -- -- 92
2021-01-13 21:00:00 4.8 12 Sur 13 Sudeste 0 -- -- 92
2021-01-13 20:00:00 4.3 6 Sur 8 Sur 0 -- -- 91
2021-01-13 19:00:00 5 5 Sur 6 Sur 0 -- -- 88
2021-01-13 18:00:00 7.4 4 Sur 7 Nordeste 0 -- -- 77
2021-01-13 17:00:00 10.6 5 Nordeste 10 Nordeste 0 -- -- 67
2021-01-13 16:00:00 11.2 6 Nordeste 10 Nordeste 0 -- -- 65
2021-01-13 15:00:00 11.4 4 Norte 8 Norte 0 -- -- 65
2021-01-13 14:00:00 11 4 Norte 9 Noroeste 0 -- -- 74
2021-01-13 13:00:00 10.9 5 Norte 8 Noroeste 0 -- -- 75
2021-01-13 12:00:00 10.8 4 Sudeste 12 Sur 0 -- -- 71
2021-01-13 11:00:00 8.1 10 Sur 15 Sur 0 -- -- 78
2021-01-13 10:00:00 5.4 13 Sur 17 Sur 0 -- -- 85
2021-01-13 09:00:00 3.9 16 Sur 20 Sudeste 0 -- -- 87
2021-01-13 08:00:00 4 12 Sur 17 Sur 0 -- -- 87
2021-01-13 07:00:00 4.6 14 Sudeste 18 Sudeste 0 -- -- 88
2021-01-13 06:00:00 4.1 13 Sur 18 Sur 0 -- -- 89
2021-01-13 05:00:00 3.8 14 Sur 16 Sur 0 -- -- 91
2021-01-13 04:00:00 3.7 13 Sur 17 Sudeste 0 -- -- 91
2021-01-13 03:00:00 3.7 15 Sur 18 Sudeste 0 -- -- 92
2021-01-13 02:00:00 3.8 14 Sur 17 Sudeste 0 -- -- 91
2021-01-13 01:00:00 4 12 Sur 15 Sur 0 -- -- 91
2021-01-13 00:00:00 4.3 13 Sur 15 Sur 0 -- -- 90
2021-01-12 23:00:00 5.1 9 Sur 13 Sudeste 0 -- -- 87
2021-01-12 22:00:00 6.3 9 Sur 13 Sur 0 -- -- 84
2021-01-12 21:00:00 6.6 11 Sudeste 14 Sudeste 0 -- -- 87
2021-01-12 20:00:00 5.9 8 Sur 10 Sur 0 -- -- 90
2021-01-12 19:00:00 5.1 5 Sur 8 Sur 0 -- -- 88
2021-01-12 18:00:00 7.4 4 Sur 6 Sur 0 -- -- 77
2021-01-12 17:00:00 10.5 5 Noroeste 9 Nordeste 0 -- -- 67
2021-01-12 16:00:00 10.7 5 Norte 9 Nordeste 0 -- -- 66
2021-01-12 15:00:00 10.8 5 Norte 12 Norte 0 -- -- 62
2021-01-12 14:00:00 10.8 5 Norte 10 Norte 0 -- -- 65
2021-01-12 13:00:00 10.7 4 Noroeste 11 Sur 0 -- -- 63
2021-01-12 12:00:00 10.3 5 Sudoeste 14 Sur 0 -- -- 66
2021-01-12 11:00:00 7.8 3 Noroeste 18 Sur 0 -- -- 71
2021-01-12 10:00:00 4.7 15 Sudeste 20 Sudeste 0 -- -- 76
2021-01-12 09:00:00 2.6 14 Sur 17 Sur 0 -- -- 82
2021-01-12 08:00:00 2.4 14 Sur 18 Sur 0 -- -- 84
2021-01-12 07:00:00 2.8 13 Sudeste 21 Sudeste 0 -- -- 82
2021-01-12 06:00:00 2.3 15 Sur 18 Sudeste 0 -- -- 86
2021-01-12 05:00:00 2.8 12 Sur 17 Sur 0 -- -- 83
2021-01-12 04:00:00 2.5 14 Sur 18 Sur 0 -- -- 87
2021-01-12 03:00:00 2.6 5 Sur 14 Sudeste 0 -- -- 83
2021-01-12 02:00:00 3.6 14 Sudeste 17 Sudeste 0 -- -- 83
2021-01-12 01:00:00 3.1 10 Sudeste 12 Sudeste 0 -- -- 85
2021-01-12 00:00:00 3.3 9 Sur 11 Sudeste 0 -- -- 85
2021-01-11 23:00:00 4.4 10 Sudeste 12 Sudeste 0 -- -- 80
2021-01-11 22:00:00 6.1 10 Sudeste 14 Sudeste 0 -- -- 74
2021-01-11 21:00:00 7.1 8 Sudeste 17 Sudeste 0 -- -- 73
2021-01-11 20:00:00 5.2 10 Sudeste 13 Sudeste 0 -- -- 79
2021-01-11 19:00:00 6.1 8 Sudeste 15 Este 0 -- -- 73
2021-01-11 18:00:00 8.5 8 Este 20 Este 0 -- -- 65
2021-01-11 17:00:00 10 11 Nordeste 22 Este 0 -- -- 59
2021-01-11 16:00:00 10.4 13 Nordeste 25 Este 0 -- -- 55
2021-01-11 15:00:00 10.8 14 Este 25 Nordeste 0 -- -- 56
2021-01-11 14:00:00 10.7 14 Nordeste 25 Nordeste 0 -- -- 59
2021-01-11 13:00:00 10.1 13 Nordeste 21 Este 0 -- -- 57
2021-01-11 12:00:00 9.7 5 Nordeste 11 Nordeste 0 -- -- 63
2021-01-11 11:00:00 8.9 4 Este 12 Sudeste 0 -- -- 66
2021-01-11 10:00:00 5.6 9 Sudeste 15 Sudeste 0 -- -- 79
2021-01-11 09:00:00 5.4 6 Sudeste 9 Sudeste 0 -- -- 80
2021-01-11 08:00:00 6.6 6 Sudeste 17 Sudeste 0 -- -- 76
2021-01-11 07:00:00 6.8 11 Sudeste 18 Este 0 -- -- 76
2021-01-11 06:00:00 6.4 11 Sudeste 21 Sudeste 0 -- -- 77
2021-01-11 05:00:00 6.7 14 Sudeste 22 Este 0 -- -- 73
2021-01-11 04:00:00 7.4 14 Este 27 Este 0 -- -- 68
2021-01-11 03:00:00 7.9 15 Este 34 Este 0 -- -- 64
2021-01-11 02:00:00 8.3 21 Nordeste 37 Nordeste 0 -- -- 59
2021-01-11 01:00:00 8.2 23 Este 39 Este 0 -- -- 64
2021-01-11 00:00:00 8.4 22 Nordeste 44 Este 0 -- -- 62
2021-01-10 23:00:00 8.4 23 Este 39 Este 0 -- -- 61
2021-01-10 22:00:00 8.3 23 Este 42 Este 0 -- -- 59
2021-01-10 21:00:00 8.1 15 Este 41 Nordeste 0 -- -- 64
2021-01-10 20:00:00 8.3 23 Este 40 Nordeste 0 -- -- 62
2021-01-10 19:00:00 8.2 19 Este 39 Este 0 -- -- 61
2021-01-10 18:00:00 8.4 24 Este 41 Este 0 -- -- 64
2021-01-10 17:00:00 8.6 23 Este 41 Este 0 -- -- 63
2021-01-10 16:00:00 9.5 25 Nordeste 44 Este 0 -- -- 58
2021-01-10 15:00:00 9.6 26 Este 44 Nordeste 0 -- -- 61
2021-01-10 14:00:00 8.6 21 Nordeste 42 Nordeste 0 -- -- 64
2021-01-10 13:00:00 8.6 22 Nordeste 44 Norte 0 -- -- 66
2021-01-10 12:00:00 8.7 21 Nordeste 44 Este 0 -- -- 64
2021-01-10 11:00:00 8.5 23 Nordeste 44 Nordeste 0 -- -- 66
2021-01-10 10:00:00 8.2 22 Nordeste 41 Nordeste 0 -- -- 67
2021-01-10 09:00:00 7.9 23 Nordeste 39 Nordeste 0 -- -- 68
2021-01-10 08:00:00 8.2 26 Nordeste 49 Este 0 -- -- 66
2021-01-10 07:00:00 8 25 Nordeste 57 Este 0 -- -- 68
2021-01-10 06:00:00 8.3 28 Este 52 Nordeste 0 -- -- 65
2021-01-10 05:00:00 8.3 30 Nordeste 53 Este 0 -- -- 67
2021-01-10 04:00:00 8 27 Nordeste 49 Nordeste 0 -- -- 71
2021-01-10 03:00:00 6.1 15 Este 27 Este 0 -- -- 89
2021-01-10 02:00:00 6.2 16 Este 32 Este 0.2 -- -- 89
2021-01-10 01:00:00 6.2 18 Este 54 Este 0.2 -- -- 88
2021-01-10 00:00:00 7.2 32 Este 54 Este 0.2 -- -- 83
2021-01-09 23:00:00 7.9 33 Nordeste 62 Nordeste 0 -- -- 69
2021-01-09 22:00:00 8.1 33 Nordeste 65 Nordeste 0 -- -- 67
2021-01-09 21:00:00 7.5 26 Nordeste 57 Nordeste 0 -- -- 72
2021-01-09 20:00:00 7.2 30 Nordeste 53 Nordeste 0.2 -- -- 77
2021-01-09 19:00:00 7 31 Nordeste 61 Nordeste 0.6 -- -- 79
2021-01-09 18:00:00 6.6 32 Nordeste 64 Nordeste 0.2 -- -- 81
2021-01-09 17:00:00 5.7 23 Nordeste 58 Nordeste 0.2 -- -- 85
2021-01-09 16:00:00 6.5 31 Nordeste 57 Nordeste 0 -- -- 74
2021-01-09 15:00:00 6.7 30 Nordeste 61 Nordeste 0.2 -- -- 70
2021-01-09 14:00:00 7.3 28 Nordeste 50 Este 0 -- -- 68
2021-01-09 13:00:00 7.2 27 Este 46 Nordeste 0 -- -- 75
2021-01-09 12:00:00 5.7 13 Este 24 Este 0 -- -- 85
2021-01-09 11:00:00 3.5 8 Sudeste 16 Sudeste 0.2 -- -- 93
2021-01-09 10:00:00 3.2 15 Este 30 Nordeste 1.2 -- -- 91
2021-01-09 09:00:00 2.8 11 Sudeste 40 Este 0.2 -- -- 89
2021-01-09 08:00:00 2.6 10 Este 16 Sudeste 0 -- -- 81
2021-01-09 07:00:00 0.2 7 Sur 10 Sudeste 0 -- -- 87
2021-01-09 06:00:00 0.4 0 Calma 11 Sudeste 0 -- -- 84
2021-01-09 05:00:00 2.1 8 Sudeste 12 Este 0 -- -- 78
2021-01-09 04:00:00 2.5 8 Sudeste 12 Este 0 -- -- 78
2021-01-09 03:00:00 1.7 7 Sudeste 10 Sudeste 0 -- -- 86
2021-01-09 02:00:00 0.6 4 Sur 9 Sudeste 0 -- -- 88
2021-01-09 01:00:00 0.6 7 Sudeste 13 Sudeste 0 -- -- 86
2021-01-09 00:00:00 2.2 10 Sudeste 15 Sudeste 0 -- -- 79
2021-01-08 23:00:00 2.4 13 Sudeste 18 Sudeste 0 -- -- 79
2021-01-08 22:00:00 3.1 13 Sudeste 18 Sudeste 0 -- -- 79
2021-01-08 21:00:00 4 11 Sudeste 18 Sudeste 0 -- -- 77
2021-01-08 20:00:00 4.8 10 Sudeste 17 Sudeste 0 -- -- 75
2021-01-08 19:00:00 5 8 Sudeste 18 Este 0 -- -- 75
2021-01-08 18:00:00 6.5 9 Este 23 Nordeste 0 -- -- 69
2021-01-08 17:00:00 7.7 14 Este 27 Este 0 -- -- 64
2021-01-08 16:00:00 8.2 13 Nordeste 27 Nordeste 0 -- -- 62
2021-01-08 15:00:00 8.3 14 Nordeste 26 Nordeste 0 -- -- 59
2021-01-08 14:00:00 8.1 9 Nordeste 19 Nordeste 0 -- -- 59
2021-01-08 13:00:00 7.5 6 Nordeste 13 Norte 0 -- -- 65
2021-01-08 12:00:00 6.7 3 Norte 6 Nordeste 0 -- -- 70
2021-01-08 11:00:00 4.5 0 Calma 7 Sudeste 0 -- -- 88
2021-01-08 10:00:00 1.3 5 Sur 8 Sudeste 0 -- -- 93
2021-01-08 09:00:00 0 3 Sudeste 9 Sudeste 0 -- -- 93
2021-01-08 08:00:00 -0.6 5 Sur 7 Sudeste 0 -- -- 93
2021-01-08 07:00:00 -0.3 3 Sur 10 Sudeste 0 -- -- 93
2021-01-08 06:00:00 -0.2 4 Sudeste 8 Sudeste 0 -- -- 93
2021-01-08 05:00:00 0.1 5 Sur 7 Sur 0 -- -- 94
2021-01-08 04:00:00 0.1 3 Sur 5 Sur 0 -- -- 94
2021-01-08 03:00:00 0.7 6 Sur 12 Sur 0 -- -- 94
2021-01-08 02:00:00 1.2 9 Sudeste 13 Sudeste 0 -- -- 94
2021-01-08 01:00:00 1.1 8 Sur 11 Sur 0 -- -- 94
2021-01-08 00:00:00 1.1 5 Sur 7 Sur 0 -- -- 93
2021-01-07 23:00:00 1.4 0 Calma 10 Sudeste 0 -- -- 92
2021-01-07 22:00:00 2 9 Sur 12 Este 0 -- -- 92
2021-01-07 21:00:00 3.4 9 Sudeste 13 Sudeste 0 -- -- 89
2021-01-07 20:00:00 3.7 10 Sudeste 14 Sudeste 0 -- -- 91
2021-01-07 19:00:00 4 8 Sudeste 12 Este 0 -- -- 91
2021-01-07 18:00:00 4.2 6 Sudeste 8 Sudeste 0 -- -- 91
2021-01-07 17:00:00 5.3 5 Sur 7 Sur 0 -- -- 89
2021-01-07 16:00:00 6.7 3 Sur 5 Nordeste 0 -- -- 84
2021-01-07 15:00:00 7.8 2 Norte 12 Nordeste 0 -- -- 77
2021-01-07 14:00:00 9.1 4 Sur 10 Sur 0 -- -- 76
2021-01-07 13:00:00 7.9 7 Oeste 13 Oeste 0 -- -- 80
2021-01-07 12:00:00 7.6 8 Noroeste 15 Noroeste 0 -- -- 81
2021-01-07 11:00:00 5.5 12 Sur 16 Sur 0 -- -- 88
2021-01-07 10:00:00 4.1 7 Oeste 15 Sudeste 0.2 -- -- 92
2021-01-07 09:00:00 2.9 12 Sudeste 18 Sudeste 0 -- -- 93
2021-01-07 08:00:00 2.7 8 Sur 18 Sudeste 0 -- -- 93
2021-01-07 07:00:00 2.2 12 Sur 18 Sur 0 -- -- 93
2021-01-07 06:00:00 2 8 Sur 15 Sudeste 0 -- -- 94
2021-01-07 05:00:00 2.2 12 Sur 15 Sudeste 0 -- -- 94
2021-01-07 04:00:00 2.5 10 Sur 17 Sur 0 -- -- 94
2021-01-07 03:00:00 1.7 10 Sur 17 Sur 0 -- -- 94
2021-01-07 02:00:00 1.5 10 Sur 14 Sudeste 0 -- -- 94
2021-01-07 01:00:00 2.8 5 Sur 18 Sur 0 -- -- 92
2021-01-07 00:00:00 2.8 14 Sur 16 Sur 0 -- -- 93
2021-01-06 23:00:00 3.9 9 Sudoeste 19 Noroeste 0 -- -- 93
2021-01-06 22:00:00 1.7 4 Sudeste 8 Sur 0 -- -- 93
2021-01-06 21:00:00 2.9 7 Sudeste 13 Sur 0 -- -- 92
2021-01-06 20:00:00 2.4 8 Sur 10 Sur 0 -- -- 93
2021-01-06 19:00:00 3.4 7 Sur 11 Sur 0 -- -- 89
2021-01-06 18:00:00 5.3 5 Oeste 18 Oeste 0 -- -- 88
2021-01-06 17:00:00 7.3 6 Norte 15 Nordeste 0 -- -- 78
2021-01-06 16:00:00 9.1 4 Nordeste 10 Nordeste 0 -- -- 69
2021-01-06 15:00:00 9.5 4 Sudeste 10 Norte 0 -- -- 70
2021-01-06 14:00:00 9 4 Norte 10 Norte 0 -- -- 74
2021-01-06 13:00:00 8.2 4 Oeste 10 Oeste 0 -- -- 78
2021-01-06 12:00:00 7.4 8 Sudoeste 11 Sudoeste 0.2 -- -- 84
2021-01-06 11:00:00 5.9 3 Norte 21 Sur 0 -- -- 92
2021-01-06 10:00:00 3.8 15 Sudeste 19 Sudeste 0 -- -- 95
2021-01-06 09:00:00 3.7 5 Sur 16 Oeste 1.4 -- -- 96
2021-01-06 08:00:00 3.6 6 Sur 11 Sudeste 1.4 -- -- 97
2021-01-06 07:00:00 2.1 10 Sur 14 Sur 0 -- -- 96
2021-01-06 06:00:00 2.9 4 Sudoeste 10 Sur 0 -- -- 96
2021-01-06 05:00:00 3.2 7 Sur 12 Sur 0 -- -- 96
2021-01-06 04:00:00 3.3 9 Sur 13 Sudoeste 0.6 -- -- 96
2021-01-06 03:00:00 3.8 2 Noroeste 8 Sur 0.4 -- -- 96
2021-01-06 02:00:00 3.9 5 Sur 11 Sudeste 0.2 -- -- 96
2021-01-06 01:00:00 4.2 10 Sur 12 Sur 0 -- -- 96
2021-01-06 00:00:00 4.1 5 Sur 8 Sur 0 -- -- 95
2021-01-05 23:00:00 4.4 5 Sur 11 Sudeste 0 -- -- 95
2021-01-05 22:00:00 4.8 7 Sudeste 11 Sur 0.2 -- -- 95
2021-01-05 21:00:00 4.6 11 Sur 14 Sur 0 -- -- 95
2021-01-05 20:00:00 4.9 6 Sudeste 11 Sur 0 -- -- 94
2021-01-05 19:00:00 4.9 9 Sur 12 Sur 0 -- -- 94
2021-01-05 18:00:00 5.2 7 Sur 10 Noroeste 0 -- -- 91
2021-01-05 17:00:00 6.6 6 Oeste 24 Sur 0.2 -- -- 85
2021-01-05 16:00:00 5.6 15 Sur 22 Sur 1 -- -- 89
2021-01-05 15:00:00 5.8 14 Sur 26 Sur 0.2 -- -- 88
2021-01-05 14:00:00 6.3 13 Sur 26 Sur 0 -- -- 88
2021-01-05 13:00:00 5.4 17 Sur 22 Sur 0.2 -- -- 92
2021-01-05 12:00:00 5.1 15 Sur 35 Sur 0.8 -- -- 90
2021-01-05 11:00:00 4.5 23 Sur 32 Sur 0 -- -- 90
2021-01-05 10:00:00 4.5 10 Sudoeste 30 Sur 0.8 -- -- 91
2021-01-05 09:00:00 3.8 22 Sur 35 Sur 0.2 -- -- 90
2021-01-05 08:00:00 4.3 14 Sur 31 Sur 2.4 -- -- 90
2021-01-05 07:00:00 4.6 16 Sur 28 Sur 0.2 -- -- 86
2021-01-05 06:00:00 4.7 9 Sudoeste 26 Sur 0 -- -- 85
2021-01-05 05:00:00 4.2 17 Sur 26 Sur 0.2 -- -- 87
2021-01-05 04:00:00 4.4 13 Sur 27 Sur 0.8 -- -- 88
2021-01-05 03:00:00 4.5 17 Sur 31 Sur 0.4 -- -- 88
2021-01-05 02:00:00 4.4 16 Sur 22 Sur 0.4 -- -- 89
2021-01-05 01:00:00 4.4 14 Sur 23 Sur 0 -- -- 87
2021-01-05 00:00:00 4 9 Sur 18 Sur 0 -- -- 88
2021-01-04 23:00:00 3.9 10 Sudoeste 23 Sur 0.8 -- -- 91
2021-01-04 22:00:00 3.7 10 Sur 21 Sur 3.8 -- -- 93
2021-01-04 21:00:00 4.2 14 Sudeste 28 Sur 0 -- -- 92
2021-01-04 20:00:00 4.5 14 Sur 25 Sur 0 -- -- 89
2021-01-04 19:00:00 4.9 15 Sur 21 Sur 0 -- -- 90
2021-01-04 18:00:00 5.5 5 Sudoeste 11 Sur 0.4 -- -- 88
2021-01-04 17:00:00 6.5 9 Sur 12 Sur 0 -- -- 85
2021-01-04 16:00:00 7.1 4 Sudoeste 13 Sudeste 0.2 -- -- 82
2021-01-04 15:00:00 5.2 6 Sudoeste 24 Oeste 1.6 -- -- 88
2021-01-04 14:00:00 5.1 5 Noroeste 24 Sur 0.2 -- -- 85
2021-01-04 13:00:00 4.8 14 Sur 22 Sur 0 -- -- 88
2021-01-04 12:00:00 3.6 13 Sur 25 Sur 2.8 -- -- 91
2021-01-04 11:00:00 4.6 19 Sur 26 Sur 0.2 -- -- 89
2021-01-04 10:00:00 3.5 15 Sudoeste 31 Sur 0.8 -- -- 91
2021-01-04 09:00:00 3.5 14 Sudeste 27 Sudoeste 2.8 -- -- 89
2021-01-04 08:00:00 4.2 13 Sur 26 Sur 0.2 -- -- 89
2021-01-04 07:00:00 4.8 13 Oeste 29 Oeste 1.4 -- -- 88
2021-01-04 06:00:00 5.2 9 Sudoeste 32 Sudoeste 1.4 -- -- 86
2021-01-04 05:00:00 5.3 14 Sudoeste 29 Oeste 0.4 -- -- 83
2021-01-04 04:00:00 5.5 13 Sudoeste 40 Oeste 0.2 -- -- 83
2021-01-04 03:00:00 6 17 Oeste 26 Oeste 0 -- -- 79
2021-01-04 02:00:00 5.6 13 Oeste 21 Sudoeste 0 -- -- 82
2021-01-04 01:00:00 5.5 14 Sudoeste 25 Oeste 0.6 -- -- 84
2021-01-04 00:00:00 5.5 9 Sudoeste 31 Oeste 0.2 -- -- 82
2021-01-03 23:00:00 5.5 10 Sudoeste 26 Oeste 0.2 -- -- 85
2021-01-03 22:00:00 5.7 12 Sudoeste 27 Oeste 0.2 -- -- 84
2021-01-03 21:00:00 5.4 12 Oeste 33 Oeste 0.8 -- -- 85
2021-01-03 20:00:00 5.3 8 Sudoeste 11 Oeste 0 -- -- 91
2021-01-03 19:00:00 5.8 10 Noroeste 19 Noroeste 1.2 -- -- 89
2021-01-03 18:00:00 5.7 10 Noroeste 48 Oeste 1.8 -- -- 90
2021-01-03 17:00:00 6.5 8 Sudoeste 25 Norte 1.8 -- -- 89
2021-01-03 16:00:00 8 7 Sudoeste 35 Oeste 0.2 -- -- 84
2021-01-03 15:00:00 6.6 14 Sudoeste 35 Sudoeste 1.2 -- -- 87
2021-01-03 14:00:00 6.9 15 Sudoeste 32 Oeste 0.4 -- -- 87
2021-01-03 13:00:00 6.7 16 Oeste 24 Oeste 1.6 -- -- 88
2021-01-03 12:00:00 6.7 18 Oeste 32 Sudoeste 1.4 -- -- 83
2021-01-03 11:00:00 7.6 27 Oeste 39 Oeste 0.2 -- -- 78
2021-01-03 10:00:00 6 13 Sudeste 22 Sudoeste 0.4 -- -- 87
2021-01-03 09:00:00 6.1 7 Sur 23 Oeste 0 -- -- 88
2021-01-03 08:00:00 5.9 7 Sudoeste 23 Sudoeste 1.6 -- -- 90
2021-01-03 07:00:00 6.4 7 Sudoeste 23 Sudoeste 0 -- -- 88
2021-01-03 06:00:00 5.7 9 Sudoeste 18 Sur 1 -- -- 91
2021-01-03 05:00:00 5.8 10 Sudoeste 27 Sudoeste 1 -- -- 90
2021-01-03 04:00:00 5.4 18 Sur 28 Sur 0.6 -- -- 90
2021-01-03 03:00:00 5.6 9 Sudoeste 18 Sudoeste 4.2 -- -- 92
2021-01-03 02:00:00 5.4 12 Oeste 23 Sur 0.4 -- -- 91
2021-01-03 01:00:00 5.8 6 Sur 15 Sudoeste 0.4 -- -- 91
2021-01-03 00:00:00 5 10 Sur 16 Sur 2 -- -- 92
2021-01-02 23:00:00 6 9 Sudoeste 19 Sudoeste 0.6 -- -- 91
2021-01-02 22:00:00 6.1 7 Sudoeste 14 Sur 0.4 -- -- 92
2021-01-02 21:00:00 5.4 10 Sur 16 Sur 0.8 -- -- 93
2021-01-02 20:00:00 5.3 7 Sur 22 Oeste 0.4 -- -- 90
2021-01-02 19:00:00 5.6 8 Sudoeste 23 Sur 0.2 -- -- 90
2021-01-02 18:00:00 6.1 11 Sur 22 Sudeste 2.2 -- -- 88
2021-01-02 17:00:00 9.4 5 Sudoeste 17 Oeste 0 -- -- 76
2021-01-02 16:00:00 8.5 8 Sudoeste 21 Oeste 0.4 -- -- 84
2021-01-02 15:00:00 8.7 8 Sudoeste 23 Sur 0 -- -- 81
2021-01-02 14:00:00 7.6 15 Sur 23 Sur 0 -- -- 84